<<    Februar 2010    >>
Datum    Temp.       Tempmin      Tempmax    Taup.       Taup.min      Taup.max    Feuchte    Feuchtemin    Feuchtemax    Druck    Druckmin    Druckmax    Regen    Wind    Benmax  
  01.02.2010  0,9    -1,5    02:50    5,4    12:04  -0,9    -3,7    02:50    1,0    17:12  88,0    61    12:18    98    16:42  1008,9    1006    00:00    1016    23:20  4,6  3,0  9,4  
  02.02.2010  1,9    -2,9    01:59    5,6    23:59  -0,4    -4,5    00:44    4,9    23:59  85,4    71    12:22    98    02:40  1008,5    999    23:59    1016    00:05  3,9  4,1  13,0  
  03.02.2010  2,3    -1,0    19:16    7,7    13:17  0,3    -2,6    19:16    5,0    00:00  87,7    54    14:57    98    01:15  1008,9    999    00:00    1014    19:50  5,8  2,9  16,9  
  04.02.2010  5,3    2,4    00:00    9,3    14:42  3,7    1,2    00:00    5,8    11:13  90,2    72    14:33    98    01:00  1011,9    1009    22:50    1013    00:00  0,0  2,8  12,6  
  05.02.2010  4,3    2,7    03:50    6,4    13:26  2,4    1,2    13:13    4,2    15:42  88,2    71    13:13    96    23:59  1006,8    1005    09:20    1010    22:50  0,0  5,5  11,9  
  06.02.2010  3,5    1,0    05:22    7,3    15:48  2,6    0,7    05:22    4,3    15:48  94,0    78    15:53    98    02:03  1012,6    1009    02:20    1018    22:44  0,0  3,9  11,9  
  07.02.2010  2,8    2,1    05:22    3,9    00:00  2,4    1,7    08:24    3,6    00:00  97,5    95    10:05    98    00:00  1019,4    1017    22:14    1022    10:31  0,0  1,3  10,4  
  08.02.2010  -0,9    -4,7    23:59    2,7    00:00  -4,4    -7,9    22:43    2,4    00:00  77,7    57    15:57    98    00:00  1011,6    1007    23:13    1017    00:00  0,0  1,9  13,7  
  09.02.2010  -3,7    -5,1    01:06    -1,8    13:41  -7,6    -9,7    19:46    -5,8    12:28  74,1    63    15:42    83    09:26  1007,6    1006    06:58    1009    18:43  0,0  2,6  11,2  
  10.02.2010  -4,4    -6,4    08:01    -0,8    14:11  -7,6    -9,7    18:29    -4,5    14:11  78,6    65    16:19    92    08:38  1009,9    1008    00:00    1013    20:58  0,0  2,8  12,6  
  11.02.2010  -2,7    -4,8    00:00    -0,3    14:18  -6,8    -9,3    02:18    -4,7    14:18  73,4    62    12:38    89    07:08  1013,3    1011    00:28    1016    23:42  0,0  5,4  22,0  
  12.02.2010  -2,5    -3,9    22:12    -0,8    12:51  -5,4    -6,5    13:40    -4,5    23:46  80,3    67    13:40    94    23:46  1017,7    1015    00:00    1020    23:59  0,0  4,4  16,2  
  13.02.2010  -2,2    -3,8    00:00    0,3    11:39  -4,7    -5,6    08:04    -3,6    23:02  83,5    68    13:16    94    00:00  1017,7    1016    23:59    1020    00:00  0,0  2,6  10,1  
  14.02.2010  -1,8    -3,2    07:48    1,0    13:18  -3,9    -5,5    17:34    -3,0    03:44  85,6    67    14:31    97    06:38  1013,3    1011    23:59    1016    00:00  0,0  1,5  8,6  
  15.02.2010  -0,9    -2,7    07:46    6,3    13:33  -3,9    -5,9    13:58    -1,9    13:27  81,1    50    13:35    94    23:49  1007,7    1005    22:57    1011    00:00  0,0  1,5  9,4  
  16.02.2010  0,9    -2,3    23:59    6,7    14:43  -5,6    -8,2    16:41    -2,0    01:01  63,9    40    14:21    97    00:23  1002,7    999    21:43    1005    00:00  1,8  3,8  16,9  
  17.02.2010  0,6    -4,0    04:35    8,2    12:56  -4,5    -8,6    02:46    0,7    18:51  70,7    39    12:57    95    18:51  995,4    993    13:27    1000    00:00  2,1  3,6  17,6  
  18.02.2010  5,8    1,9    00:01    13,6    14:47  0,8    -3,3    16:48    5,7    12:10  74,2    35    15:04    98    05:28  996,1    993    00:26    998    11:11  1,9  3,0  14,0  
  19.02.2010  4,5    0,8    23:59    9,5    12:08  0,2    -2,4    16:33    2,0    11:07  73,9    49    12:37    87    18:55  994,2    991    12:26    999    23:59  0,0  4,2  16,9  
  20.02.2010  2,2    -0,7    04:04    5,8    15:06  -1,9    -3,7    22:01    1,2    12:22  74,4    57    15:06    87    04:26  998,7    997    01:12    1001    18:50  0,0  1,8  15,8  
  21.02.2010  3,1    0,7    04:06    6,8    15:40  0,2    -2,6    00:00    2,8    12:58  82,1    58    15:35    97    07:43  999,5    996    23:20    1001    00:00  1,8  2,2  14,0  
  22.02.2010  7,0    2,5    03:07    12,0    15:14  3,7    0,4    02:22    7,5    23:27  80,0    62    15:29    92    10:10  990,5    985    20:21    996    00:00  2,1  3,9  17,6  
  23.02.2010  6,7    4,8    19:11    10,1    01:52  5,6    4,5    19:11    7,3    00:00  92,8    78    01:52    98    23:59  992,4    987    00:50    996    21:19  8,5  1,8  11,9  
  24.02.2010  8,9    5,1    00:00    13,0    12:46  6,2    4,8    00:00    9,4    11:02  84,4    62    13:32    98    00:00  997,8    995    00:00    1000    11:49  0,9  3,1  18,0  
  25.02.2010  9,6    8,3    08:04    11,9    15:06  5,8    3,5    16:47    7,8    12:02  77,3    60    16:11    91    20:30  994,7    989    22:34    997    00:00  2,1  4,7  19,4  
  26.02.2010  9,1    5,6    23:59    12,6    11:38  4,3    -1,9    23:01    8,0    03:07  72,1    55    21:34    90    01:55  991,8    988    02:19    1002    23:34  1,8  5,4  25,2  
  27.02.2010  8,5    4,1    05:12    13,7    14:58  0,8    -1,6    00:15    4,1    11:12  59,5    45    17:01    76    07:39  1000,8    993    23:18    1005    06:34  0,0  3,7  20,5  
  28.02.2010  8,2    5,0    23:59    14,4    11:19  3,7    -0,7    00:37    8,9    10:47  75,0    48    00:37    98    06:59  987,1    980    10:48    999    23:59  4,6  7,8  38,5  
 
  Gesamt  2,8  -6,4            14,4            -0,5  -9,7            9,4            80,2  35            98            1004,2  980            1022            41,7  3,4  38,5  
 
  Mittelwert  2,8  0,0            6,8            -0,5  -3,1            2,4            80,2  60,3            93,9            1004,2  1000,3            1008,2            1,5  3,4  15,6  
  Minimum  -4,4  -6,4            -1,8            -7,6  -9,7            -5,8            59,5  35,0            76,0            987,1  980,0            996,0            0,0  1,3  8,6  
  Maximum  9,6  8,3            14,4            6,2  4,8            9,4            97,5  95,0            98,0            1019,4  1017,0            1022,0            8,5  7,8  38,5  

  Heie Tage    Tmax >=30C     0  
  Sommertage    Tmax >=25C     0  
  Warme Tage    Tmax >=20C     0  
  Kalte Tage    Tmax  <10C     20  
  Frosttage    Tmin  <0C     14  
  Eistage    Tmax  <0C     4  
  Regentage > 0 mm    13  
  Regentage > 2 mm    8  
  Regentage > 10 mm    0  
  Regentage > 20 mm    0